Time;durP1;ratioP1;P1;durP2;ratioP2;P2;SDS_P1;SDS_P2;PMS_P1;PMS_P2;Temp;Humidity;BMP_temperature;BMP_pressure;BME280_temperature;BME280_humidity;BME280_pressure;Samples;Min_cycle;Max_cycle;Signal;HPM_P1;HPM_P2
2022/08/23 00:01:15;;;;;;;4.50;3.10;;;;;;;29.26;47.20;100225.95;104536;1309;61291;-81
2022/08/23 00:03:41;;;;;;;6.70;3.50;;;;;;;29.26;46.92;100222.49;104498;1306;61631;-81
2022/08/23 00:06:07;;;;;;;5.50;3.00;;;;;;;29.25;47.28;100221.27;104425;1309;61143;-81
2022/08/23 00:08:33;;;;;;;5.90;3.00;;;;;;;29.26;46.85;100219.23;104506;1309;61294;-80
2022/08/23 00:10:59;;;;;;;5.20;3.10;;;;;;;29.25;47.22;100218.54;104437;1309;61266;-81
2022/08/23 00:13:24;;;;;;;5.60;3.30;;;;;;;29.25;47.29;100216.55;104581;1308;62008;-81
2022/08/23 00:15:50;;;;;;;8.40;3.40;;;;;;;29.26;46.95;100221.05;104637;1308;61300;-81
2022/08/23 00:18:17;;;;;;;7.20;3.40;;;;;;;29.25;47.27;100224.93;104574;1309;61355;-81
2022/08/23 00:20:43;;;;;;;6.80;3.30;;;;;;;29.25;47.16;100227.67;104518;1309;75648;-81
2022/08/23 00:23:09;;;;;;;4.80;3.30;;;;;;;29.25;46.96;100229.61;104458;1309;61209;-82
2022/08/23 00:25:35;;;;;;;5.20;3.40;;;;;;;29.25;47.10;100228.90;104512;1308;62579;-83
2022/08/23 00:28:00;;;;;;;5.20;3.40;;;;;;;29.25;47.07;100228.21;104510;1308;61474;-80
2022/08/23 00:30:26;;;;;;;6.10;3.40;;;;;;;29.25;47.11;100230.59;104512;1309;61983;-81
2022/08/23 00:32:52;;;;;;;4.80;3.00;;;;;;;29.25;47.04;100230.59;104523;1307;61372;-81
2022/08/23 00:35:19;;;;;;;5.70;3.40;;;;;;;29.25;46.92;100230.02;104512;1309;61173;-81
2022/08/23 00:37:45;;;;;;;4.20;3.10;;;;;;;29.24;47.14;100237.36;104514;1308;61207;-79
2022/08/23 00:40:13;;;;;;;4.90;3.50;;;;;;;29.25;47.24;100239.13;104478;1309;61381;-79
2022/08/23 00:49:07;;;;;;;5.70;3.30;;;;;;;29.22;47.10;100233.92;104209;1315;73914;-81
2022/08/23 00:51:40;;;;;;;5.10;3.30;;;;;;;29.23;47.23;100236.27;104210;1315;74871;-80
2022/08/23 00:54:07;;;;;;;7.00;3.20;;;;;;;29.23;47.02;100240.17;104131;1315;61501;-81
2022/08/23 00:56:33;;;;;;;4.90;3.40;;;;;;;29.23;47.31;100242.59;104165;1315;61263;-80
2022/08/23 00:58:58;;;;;;;6.50;3.60;;;;;;;29.23;47.17;100247.98;104170;1315;61357;-81
2022/08/23 01:01:24;;;;;;;5.80;3.50;;;;;;;29.23;47.13;100251.45;103853;1315;61318;-81
2022/08/23 01:03:53;;;;;;;7.30;3.30;;;;;;;29.23;47.37;100250.00;104119;1315;62527;-80
2022/08/23 01:06:44;;;;;;;7.40;3.10;;;;;;;29.23;47.31;100244.95;104240;1315;61145;-80
2022/08/23 01:09:16;;;;;;;5.20;3.20;;;;;;;29.23;47.23;100243.68;104255;1315;73224;-80
2022/08/23 01:11:48;;;;;;;5.60;3.30;;;;;;;29.22;47.25;100244.25;104219;1314;77069;-82
2022/08/23 01:14:17;;;;;;;6.00;3.10;;;;;;;29.22;47.19;100241.38;104212;1315;61289;-80
2022/08/23 01:16:56;;;;;;;;;;;;;;;29.23;47.30;100240.63;104377;1309;61352;-80
2022/08/23 01:19:31;;;;;;;4.40;3.00;;;;;;;29.20;47.19;100240.92;104576;1308;73824;-80
2022/08/23 01:22:37;;;;;;;7.00;3.10;;;;;;;29.21;47.33;100236.86;104525;1309;76858;-80
2022/08/23 01:25:05;;;;;;;6.50;3.40;;;;;;;29.20;47.27;100234.21;104259;1314;61193;-80
2022/08/23 01:27:30;;;;;;;4.90;3.10;;;;;;;29.20;47.17;100234.91;104208;1315;61577;-80
2022/08/23 01:29:56;;;;;;;5.90;3.10;;;;;;;29.20;47.07;100232.00;104181;1315;61656;-80
2022/08/23 01:32:21;;;;;;;7.10;3.60;;;;;;;29.20;47.48;100228.91;104222;1315;61343;-80
2022/08/23 01:34:47;;;;;;;5.90;3.30;;;;;;;29.21;47.27;100224.53;103919;1315;61264;-90
2022/08/23 01:37:12;;;;;;;6.20;3.30;;;;;;;29.21;47.33;100220.55;104200;1315;62007;-80
2022/08/23 01:39:38;;;;;;;6.30;3.30;;;;;;;29.21;47.20;100222.19;104115;1315;61429;-81
2022/08/23 01:42:05;;;;;;;6.10;3.00;;;;;;;29.21;47.50;100221.84;104179;1315;61343;-80
2022/08/23 01:44:31;;;;;;;6.30;3.20;;;;;;;29.20;47.20;100221.29;104212;1314;61239;-81
2022/08/23 01:46:56;;;;;;;4.80;2.80;;;;;;;29.20;47.43;100222.77;104192;1315;61388;-81
2022/08/23 01:49:23;;;;;;;5.40;3.20;;;;;;;29.20;47.43;100225.14;103892;1315;61383;-81
2022/08/23 01:51:48;;;;;;;7.60;3.00;;;;;;;29.20;47.38;100222.05;104235;1315;61298;-80
2022/08/23 01:54:14;;;;;;;6.20;3.20;;;;;;;29.21;47.47;100221.29;104224;1315;61260;-80
2022/08/23 01:56:40;;;;;;;5.40;2.90;;;;;;;29.20;47.38;100221.87;104252;1315;61375;-80
2022/08/23 01:59:07;;;;;;;4.60;3.00;;;;;;;29.20;47.56;100218.95;104039;1309;61219;-80
2022/08/23 02:01:33;;;;;;;6.30;3.30;;;;;;;29.21;47.50;100214.95;104511;1309;61757;-80
2022/08/23 02:04:00;;;;;;;5.60;3.20;;;;;;;29.20;47.28;100209.03;104440;1309;61334;-80
2022/08/23 02:06:26;;;;;;;5.70;3.30;;;;;;;29.20;47.40;100210.84;104462;1309;61262;-81
2022/08/23 02:09:01;;;;;;;5.90;3.40;;;;;;;29.20;47.26;100210.33;104515;1309;61294;-81
2022/08/23 02:11:29;;;;;;;8.50;2.90;;;;;;;29.20;47.55;100215.39;104526;1309;61243;-81
2022/08/23 02:13:56;;;;;;;4.80;2.90;;;;;;;29.19;47.33;100215.63;104561;1309;72865;-81
2022/08/23 02:16:24;;;;;;;5.50;3.00;;;;;;;29.19;47.23;100219.27;104415;1308;77078;-79
2022/08/23 02:18:50;;;;;;;4.90;3.10;;;;;;;29.20;47.43;100219.59;104631;1309;61387;-81
2022/08/23 02:21:16;;;;;;;6.40;3.10;;;;;;;29.19;47.36;100224.50;104536;1309;61271;-83
2022/08/23 02:23:42;;;;;;;6.30;3.30;;;;;;;29.19;47.28;100225.61;104539;1309;61278;-83
2022/08/23 02:26:08;;;;;;;4.60;3.00;;;;;;;29.19;47.43;100227.62;104494;1308;62185;-83
2022/08/23 02:28:33;;;;;;;5.50;3.10;;;;;;;29.19;47.49;100229.80;104516;1309;61262;-83
2022/08/23 02:31:00;;;;;;;5.00;3.00;;;;;;;29.19;47.53;100237.58;104543;1309;61331;-82
2022/08/23 02:33:25;;;;;;;6.80;3.20;;;;;;;29.19;47.66;100243.90;104527;1309;61310;-82
2022/08/23 02:35:51;;;;;;;5.70;3.00;;;;;;;29.19;47.59;100249.00;104619;1308;61204;-82
2022/08/23 02:38:17;;;;;;;6.00;3.30;;;;;;;29.19;47.52;100251.53;104644;1308;59344;-82
2022/08/23 02:40:42;;;;;;;5.70;3.20;;;;;;;29.19;47.55;100253.89;104522;1308;61744;-82
2022/08/23 02:43:08;;;;;;;5.90;3.10;;;;;;;29.19;47.58;100255.90;104647;1309;61338;-82
2022/08/23 02:45:34;;;;;;;7.40;3.10;;;;;;;29.19;47.65;100254.50;104599;1309;61192;-82
2022/08/23 02:48:00;;;;;;;6.10;3.20;;;;;;;29.19;47.47;100258.80;104464;1309;61321;-82
2022/08/23 02:50:26;;;;;;;6.60;3.20;;;;;;;29.19;47.62;100263.73;104560;1309;61256;-82
2022/08/23 02:52:53;;;;;;;5.60;3.30;;;;;;;29.18;47.44;100263.23;104545;1309;61396;-80
2022/08/23 02:55:19;;;;;;;4.70;2.90;;;;;;;29.19;47.44;100261.36;104508;1309;61168;-81
2022/08/23 02:57:44;;;;;;;4.60;3.10;;;;;;;29.18;47.40;100262.89;104327;1312;61316;-80
2022/08/23 03:00:11;;;;;;;5.80;3.10;;;;;;;29.18;47.48;100266.73;104303;1312;61337;-81
2022/08/23 03:02:36;;;;;;;4.70;2.80;;;;;;;29.18;47.48;100276.52;104324;1312;61308;-80
2022/08/23 03:05:04;;;;;;;6.00;3.30;;;;;;;29.17;47.59;100278.35;103007;1311;1833921;-80
2022/08/23 03:07:29;;;;;;;5.20;2.90;;;;;;;29.17;47.56;100277.64;104384;1312;61333;-80
2022/08/23 03:09:55;;;;;;;5.30;3.20;;;;;;;29.17;47.65;100279.10;104320;1312;61258;-80
2022/08/23 03:12:21;;;;;;;6.90;3.20;;;;;;;29.17;47.65;100282.70;104338;1312;61427;-80
2022/08/23 03:14:46;;;;;;;6.30;3.00;;;;;;;29.17;47.35;100286.88;104360;1312;61303;-80
2022/08/23 03:17:12;;;;;;;5.40;3.00;;;;;;;29.17;47.58;100293.11;104317;1312;61401;-80
2022/08/23 03:19:38;;;;;;;7.50;3.10;;;;;;;29.17;47.66;100302.52;104272;1312;61274;-80
2022/08/23 03:22:04;;;;;;;5.60;3.00;;;;;;;29.17;47.44;100303.92;104330;1312;61288;-81
2022/08/23 03:24:29;;;;;;;6.20;3.60;;;;;;;29.17;47.62;100301.09;104300;1312;61351;-80
2022/08/23 03:26:55;;;;;;;5.80;2.80;;;;;;;29.17;47.58;100298.04;104256;1312;61588;-81
2022/08/23 03:29:20;;;;;;;5.80;3.20;;;;;;;29.16;47.64;100307.13;104487;1308;61344;-81
2022/08/23 03:31:46;;;;;;;4.90;3.20;;;;;;;29.17;47.63;100315.23;104530;1309;61385;-80
2022/08/23 03:34:13;;;;;;;5.70;3.30;;;;;;;29.16;47.53;100315.82;104436;1309;61497;-80
2022/08/23 03:36:38;;;;;;;6.80;3.50;;;;;;;29.16;47.52;100315.19;104507;1309;61253;-80
2022/08/23 03:39:05;;;;;;;7.90;3.40;;;;;;;29.15;47.59;100314.37;104379;1309;61247;-80
2022/08/23 03:41:30;;;;;;;7.40;3.50;;;;;;;29.14;47.64;100321.34;104745;1307;61314;-80
2022/08/23 03:43:56;;;;;;;6.60;3.50;;;;;;;29.14;47.62;100328.41;104505;1309;61293;-81
2022/08/23 03:46:22;;;;;;;5.60;3.20;;;;;;;29.14;47.47;100339.99;104482;1306;61220;-80
2022/08/23 03:48:52;;;;;;;6.40;3.10;;;;;;;29.14;47.35;100341.83;104309;1309;61374;-80
2022/08/23 03:51:18;;;;;;;6.80;3.40;;;;;;;29.14;47.37;100343.11;104257;1309;61329;-80
2022/08/23 03:53:46;;;;;;;5.30;3.40;;;;;;;29.15;47.69;100343.36;104291;1309;61224;-80
2022/08/23 03:56:33;;;;;;;7.60;3.50;;;;;;;29.15;47.62;100343.19;104418;1309;73639;-80
2022/08/23 03:59:02;;;;;;;9.10;4.00;;;;;;;29.15;47.67;100350.02;104717;1309;61505;-80
2022/08/23 04:01:28;;;;;;;;;;;;;;;29.16;47.47;100349.09;104244;1309;62565;-80
2022/08/23 04:03:53;;;;;;;10.10;3.80;;;;;;;29.13;47.46;100346.68;104201;1309;61293;-80
2022/08/23 04:06:19;;;;;;;7.20;3.70;;;;;;;29.14;47.25;100348.89;104349;1309;61309;-80
2022/08/23 04:08:45;;;;;;;10.00;3.80;;;;;;;29.14;47.25;100349.06;104391;1309;61303;-80
2022/08/23 04:11:12;;;;;;;9.00;3.90;;;;;;;29.14;47.14;100353.27;104577;1308;61249;-80
2022/08/23 04:13:38;;;;;;;10.10;4.20;;;;;;;29.14;47.06;100356.66;104541;1308;61371;-80
2022/08/23 04:16:04;;;;;;;9.00;4.30;;;;;;;29.13;46.98;100352.42;104428;1309;61879;-80
2022/08/23 04:18:32;;;;;;;7.90;4.20;;;;;;;29.14;46.84;100354.20;104519;1308;61277;-80
2022/08/23 04:20:59;;;;;;;11.80;4.10;;;;;;;29.13;46.68;100350.66;104583;1307;61195;-80
2022/08/23 04:23:26;;;;;;;7.90;3.70;;;;;;;29.12;46.75;100350.92;104253;1309;62476;-80
2022/08/23 04:25:53;;;;;;;10.50;3.80;;;;;;;29.11;46.62;100350.27;104470;1309;59816;-81
2022/08/23 04:28:20;;;;;;;14.10;4.10;;;;;;;29.11;46.60;100347.23;104385;1309;61365;-80
2022/08/23 04:30:45;;;;;;;8.30;3.80;;;;;;;29.10;46.50;100354.54;104511;1309;61271;-81
2022/08/23 04:33:11;;;;;;;9.50;4.20;;;;;;;29.10;46.39;100351.48;104387;1307;59895;-81
2022/08/23 04:35:37;;;;;;;10.30;3.90;;;;;;;29.10;46.41;100354.24;104293;1309;61368;-79
2022/08/23 04:38:03;;;;;;;10.60;4.00;;;;;;;29.10;46.33;100351.65;104282;1309;61191;-80
2022/08/23 04:43:13;;;;;;;7.70;4.50;;;;;;;29.10;46.04;100360.23;104391;1308;73898;-80
2022/08/23 04:45:39;;;;;;;9.50;4.40;;;;;;;29.10;46.16;100362.18;104404;1308;61433;-79
2022/08/23 04:48:06;;;;;;;11.40;4.40;;;;;;;29.09;46.06;100359.33;104287;1309;61310;-79
2022/08/23 04:50:32;;;;;;;12.00;4.00;;;;;;;29.09;45.92;100355.35;104352;1309;61321;-80
2022/08/23 04:52:58;;;;;;;8.40;3.50;;;;;;;29.10;45.80;100357.88;104346;1309;61271;-80
2022/08/23 04:55:23;;;;;;;11.00;4.00;;;;;;;29.09;45.79;100355.91;104320;1308;61303;-80
2022/08/23 04:57:49;;;;;;;12.50;3.70;;;;;;;29.09;45.74;100351.21;104314;1309;61428;-82
2022/08/23 05:00:15;;;;;;;9.20;3.90;;;;;;;29.09;45.81;100349.62;104546;1308;61278;-80
2022/08/23 05:02:41;;;;;;;8.50;3.50;;;;;;;29.09;45.77;100354.52;104386;1311;61321;-81
2022/08/23 05:05:07;;;;;;;8.20;3.30;;;;;;;29.09;45.50;100355.09;104323;1310;72670;-82
2022/08/23 05:07:33;;;;;;;10.20;3.90;;;;;;;29.08;45.46;100359.09;104344;1308;61235;-80
2022/08/23 05:09:59;;;;;;;11.60;3.70;;;;;;;29.08;45.34;100362.73;104489;1308;61374;-81
2022/08/23 05:12:24;;;;;;;10.40;3.90;;;;;;;29.08;45.16;100366.36;104478;1309;61943;-82
2022/08/23 05:14:50;;;;;;;9.80;3.50;;;;;;;29.08;45.32;100365.89;104341;1312;61292;-82
2022/08/23 05:17:16;;;;;;;12.50;4.00;;;;;;;29.07;45.26;100363.55;104292;1308;61277;-82
2022/08/23 05:19:41;;;;;;;11.00;4.10;;;;;;;29.07;45.34;100364.45;104479;1308;61381;-80
2022/08/23 05:22:07;;;;;;;9.70;4.10;;;;;;;29.06;45.04;100363.11;104386;1309;61269;-81
2022/08/23 05:24:32;;;;;;;10.00;3.50;;;;;;;29.07;44.72;100366.00;104318;1308;61334;-82
2022/08/23 05:26:58;;;;;;;8.90;3.70;;;;;;;29.06;44.95;100363.55;104272;1309;61363;-82
2022/08/23 05:29:24;;;;;;;8.60;3.60;;;;;;;29.06;44.93;100364.98;104344;1309;61285;-83
2022/08/23 05:31:50;;;;;;;9.90;3.70;;;;;;;29.06;44.84;100364.43;104251;1309;62171;-82
2022/08/23 05:34:16;;;;;;;10.00;3.60;;;;;;;29.06;44.98;100362.13;104328;1309;61418;-82
2022/08/23 05:36:41;;;;;;;8.90;3.50;;;;;;;29.06;44.87;100357.20;104397;1308;63230;-82
2022/08/23 05:39:07;;;;;;;9.10;3.90;;;;;;;29.07;44.89;100359.44;104310;1308;60401;-82
2022/08/23 05:41:33;;;;;;;9.20;3.60;;;;;;;29.07;44.73;100356.48;104366;1309;61335;-82
2022/08/23 05:43:58;;;;;;;8.20;4.00;;;;;;;29.09;44.89;100356.69;104223;1309;62926;-82
2022/08/23 05:46:25;;;;;;;11.90;3.90;;;;;;;29.10;44.95;100351.15;104347;1309;61480;-82
2022/08/23 05:48:51;;;;;;;8.70;3.60;;;;;;;29.11;44.91;100354.46;104718;1309;61196;-82
2022/08/23 05:51:23;;;;;;;10.70;4.10;;;;;;;29.11;44.97;100358.02;104503;1308;61265;-82
2022/08/23 05:53:50;;;;;;;8.20;3.40;;;;;;;29.12;44.79;100360.65;104427;1309;61198;-82
2022/08/23 05:56:25;;;;;;;12.00;3.60;;;;;;;29.13;44.78;100359.20;104385;1308;61089;-82
2022/08/23 05:58:53;;;;;;;10.80;3.90;;;;;;;29.13;44.69;100361.49;104456;1308;74363;-82
2022/08/23 06:01:19;;;;;;;13.90;4.00;;;;;;;29.14;44.77;100360.31;104705;1307;73823;-82
2022/08/23 06:03:45;;;;;;;13.20;4.30;;;;;;;29.14;44.54;100360.23;104220;1309;61242;-82
2022/08/23 06:06:11;;;;;;;14.80;3.90;;;;;;;29.15;44.52;100364.48;104350;1308;61308;-82
2022/08/23 06:08:38;;;;;;;11.20;3.80;;;;;;;29.16;44.64;100366.77;105002;1309;59232;-82
2022/08/23 06:11:17;;;;;;;12.80;4.00;;;;;;;29.17;44.72;100367.58;104318;1309;61467;-82
2022/08/23 06:13:48;;;;;;;9.80;3.80;;;;;;;29.18;44.55;100364.58;104451;1309;61452;-82
2022/08/23 06:16:14;;;;;;;10.00;3.90;;;;;;;29.18;44.47;100368.17;104661;1307;62408;-82
2022/08/23 06:18:40;;;;;;;13.40;3.90;;;;;;;29.19;44.73;100372.79;104532;1309;61259;-82
2022/08/23 06:21:07;;;;;;;10.60;3.70;;;;;;;29.19;44.63;100371.54;104632;1308;62564;-82
2022/08/23 06:23:33;;;;;;;12.20;4.10;;;;;;;29.19;44.72;100368.81;104488;1309;61160;-82
2022/08/23 06:26:00;;;;;;;12.80;4.00;;;;;;;29.18;44.56;100371.02;104436;1309;61189;-82
2022/08/23 06:28:30;;;;;;;11.00;3.90;;;;;;;29.19;44.64;100370.59;104502;1309;71698;-82
2022/08/23 06:30:57;;;;;;;8.90;3.80;;;;;;;29.19;44.69;100370.92;104502;1308;74745;-82
2022/08/23 06:33:23;;;;;;;12.00;3.80;;;;;;;29.20;44.63;100374.15;104382;1309;61307;-81
2022/08/23 06:35:49;;;;;;;10.40;3.90;;;;;;;29.20;44.63;100371.40;104539;1308;62490;-81
2022/08/23 06:38:16;;;;;;;11.40;3.70;;;;;;;29.20;44.79;100372.11;104452;1309;61282;-81
2022/08/23 06:40:42;;;;;;;9.10;3.50;;;;;;;29.20;44.45;100373.54;104375;1308;61322;-81
2022/08/23 06:43:08;;;;;;;7.30;3.60;;;;;;;29.21;44.70;100376.40;104498;1309;61294;-81
2022/08/23 06:45:33;;;;;;;9.10;3.90;;;;;;;29.20;44.63;100376.56;104565;1309;61268;-82
2022/08/23 06:47:59;;;;;;;7.70;3.50;;;;;;;29.21;44.70;100376.48;104536;1308;61324;-82
2022/08/23 06:50:25;;;;;;;10.50;3.80;;;;;;;29.22;44.62;100380.81;104589;1309;61279;-82
2022/08/23 06:52:51;;;;;;;7.30;3.50;;;;;;;29.22;44.50;100385.50;104386;1309;61231;-82
2022/08/23 06:55:17;;;;;;;12.40;3.80;;;;;;;29.22;44.60;100386.17;104569;1309;62486;-82
2022/08/23 06:57:44;;;;;;;11.70;3.90;;;;;;;29.23;44.65;100387.93;104582;1309;61284;-82
2022/08/23 07:00:10;;;;;;;9.20;3.80;;;;;;;29.22;44.73;100386.52;104467;1308;61384;-81
2022/08/23 07:02:36;;;;;;;7.70;3.80;;;;;;;29.22;44.77;100385.64;104510;1308;61258;-82
2022/08/23 07:05:03;;;;;;;8.00;3.80;;;;;;;29.23;44.79;100388.95;104555;1309;61374;-82
2022/08/23 07:07:29;;;;;;;11.20;3.80;;;;;;;29.24;44.58;100389.10;104539;1309;61247;-80
2022/08/23 07:09:55;;;;;;;9.60;3.60;;;;;;;29.23;44.57;100386.91;104479;1309;61243;-82
2022/08/23 07:12:21;;;;;;;9.00;3.90;;;;;;;29.24;44.69;100388.48;104462;1307;61311;-80
2022/08/23 07:14:48;;;;;;;11.10;3.50;;;;;;;29.24;44.60;100393.55;104403;1309;61248;-80
2022/08/23 07:17:13;;;;;;;6.80;3.50;;;;;;;29.25;44.58;100397.63;104395;1308;61253;-79
2022/08/23 07:19:42;;;;;;;9.50;4.00;;;;;;;29.26;44.66;100395.55;104319;1309;61339;-80
2022/08/23 07:22:08;;;;;;;8.80;4.10;;;;;;;29.27;44.55;100399.64;104517;1308;61387;-80
2022/08/23 07:24:35;;;;;;;9.30;3.90;;;;;;;29.27;44.57;100403.05;104460;1309;61416;-80
2022/08/23 07:27:05;;;;;;;7.00;3.40;;;;;;;29.29;44.65;100409.26;104453;1308;61348;-80
2022/08/23 07:29:31;;;;;;;9.90;3.90;;;;;;;29.29;44.91;100410.14;104689;1309;74051;-82
2022/08/23 07:31:57;;;;;;;9.50;4.00;;;;;;;29.30;44.62;100408.07;104246;1309;62080;-80
2022/08/23 07:34:22;;;;;;;9.40;4.00;;;;;;;29.30;44.70;100407.09;104462;1308;61213;-80
2022/08/23 07:36:49;;;;;;;7.20;3.90;;;;;;;29.31;44.87;100404.09;104686;1309;61268;-80
2022/08/23 07:39:15;;;;;;;8.30;4.20;;;;;;;29.31;44.82;100407.83;104612;1308;61163;-79
2022/08/23 07:41:40;;;;;;;9.90;4.00;;;;;;;29.32;44.88;100408.54;104483;1309;61860;-80
2022/08/23 07:44:08;;;;;;;8.70;3.60;;;;;;;29.31;44.73;100404.77;104463;1309;61354;-81
2022/08/23 07:46:38;;;;;;;11.00;4.00;;;;;;;29.31;44.71;100402.08;104481;1309;61000;-81
2022/08/23 07:49:04;;;;;;;10.10;4.10;;;;;;;29.31;44.73;100404.30;104490;1309;61440;-81
2022/08/23 07:51:31;;;;;;;10.00;3.80;;;;;;;29.31;44.75;100409.20;104488;1309;61268;-81
2022/08/23 07:53:56;;;;;;;7.60;3.80;;;;;;;29.31;44.65;100409.93;104607;1309;61429;-81
2022/08/23 07:56:22;;;;;;;9.10;4.10;;;;;;;29.30;44.66;100412.89;104473;1308;61303;-81
2022/08/23 07:58:48;;;;;;;10.60;3.90;;;;;;;29.30;44.77;100411.09;104450;1309;61298;-82
2022/08/23 08:01:20;;;;;;;10.60;4.10;;;;;;;29.30;44.77;100411.48;104480;1309;61364;-82
2022/08/23 08:03:47;;;;;;;11.00;4.10;;;;;;;29.29;44.75;100412.80;104716;1309;74741;-80
2022/08/23 08:06:27;;;;;;;9.00;4.00;;;;;;;29.29;44.71;100415.58;104602;1308;62221;-81
2022/08/23 08:08:53;;;;;;;7.80;3.80;;;;;;;29.29;44.90;100413.77;104578;1309;61262;-81
2022/08/23 08:11:21;;;;;;;12.00;4.00;;;;;;;29.28;44.69;100418.00;104502;1307;61252;-81
2022/08/23 08:13:48;;;;;;;12.00;4.90;;;;;;;29.29;44.60;100412.90;104559;1309;76095;-81
2022/08/23 08:16:21;;;;;;;10.60;3.90;;;;;;;29.28;45.01;100419.25;104373;1308;61539;-81
2022/08/23 08:18:47;;;;;;;11.60;4.00;;;;;;;29.28;44.59;100417.83;104427;1307;61140;-81
2022/08/23 08:21:14;;;;;;;10.60;4.00;;;;;;;29.29;44.64;100420.14;104383;1309;61419;-81
2022/08/23 08:23:40;;;;;;;12.40;4.40;;;;;;;29.29;44.75;100415.92;104305;1309;61102;-80
2022/08/23 08:26:06;;;;;;;10.70;3.90;;;;;;;29.28;44.74;100414.70;104359;1309;61323;-80
2022/08/23 08:28:32;;;;;;;9.90;3.90;;;;;;;29.30;44.90;100412.02;104384;1309;61333;-80
2022/08/23 08:30:58;;;;;;;8.90;3.80;;;;;;;29.30;44.74;100408.17;104098;1311;61285;-80
2022/08/23 08:33:25;;;;;;;9.90;4.00;;;;;;;29.31;44.84;100413.01;104129;1312;61271;-81
2022/08/23 08:35:51;;;;;;;9.20;4.20;;;;;;;29.31;44.78;100413.66;104274;1312;61186;-81
2022/08/23 08:38:16;;;;;;;9.10;4.30;;;;;;;29.32;44.64;100413.05;103910;1311;61310;-81
2022/08/23 08:40:42;;;;;;;12.70;3.70;;;;;;;29.32;44.72;100415.77;104031;1312;61339;-81
2022/08/23 08:43:26;;;;;;;10.60;3.90;;;;;;;29.32;44.61;100414.45;104214;1310;61408;-81
2022/08/23 08:46:09;;;;;;;8.40;3.50;;;;;;;29.33;45.03;100415.81;104208;1311;74670;-81
2022/08/23 08:48:41;;;;;;;9.70;3.90;;;;;;;29.33;44.76;100421.05;104181;1312;62434;-81
2022/08/23 08:51:33;;;;;;;9.20;4.00;;;;;;;29.34;44.67;100417.54;104137;1312;61969;-81
2022/08/23 08:53:59;;;;;;;10.30;4.30;;;;;;;29.34;44.95;100412.40;104236;1311;73062;-81
2022/08/23 08:56:26;;;;;;;10.40;3.80;;;;;;;29.34;44.88;100409.48;104197;1311;61147;-81
2022/08/23 08:58:54;;;;;;;8.60;4.00;;;;;;;29.35;44.98;100408.32;104333;1310;61361;-81
2022/08/23 09:01:21;;;;;;;9.30;4.20;;;;;;;29.34;44.81;100405.13;104324;1310;61174;-81
2022/08/23 09:03:47;;;;;;;12.10;3.90;;;;;;;29.35;44.71;100402.34;104232;1312;73823;-82
2022/08/23 09:06:27;;;;;;;7.90;3.90;;;;;;;29.35;44.65;100403.44;104279;1311;61263;-81
2022/08/23 09:08:59;;;;;;;9.70;4.00;;;;;;;29.35;44.85;100410.47;104329;1309;61729;-82
2022/08/23 09:11:48;;;;;;;8.00;3.70;;;;;;;29.36;44.64;100408.63;104485;1309;62100;-82
2022/08/23 09:14:28;;;;;;;;;;;;;;;29.36;44.73;100402.27;104514;1309;73571;-81
2022/08/23 09:17:04;;;;;;;9.50;3.60;;;;;;;29.33;44.72;100403.98;104497;1309;74765;-81
2022/08/23 09:19:32;;;;;;;10.70;3.80;;;;;;;29.34;44.77;100411.83;104359;1309;61416;-81
2022/08/23 09:22:06;;;;;;;8.80;4.20;;;;;;;29.35;44.68;100409.05;104818;1309;61729;-82
2022/08/23 09:24:32;;;;;;;8.10;3.90;;;;;;;29.35;44.70;100408.29;104466;1308;73959;-82
2022/08/23 09:26:58;;;;;;;8.70;4.00;;;;;;;29.36;44.77;100408.59;104518;1308;61421;-81
2022/08/23 09:29:29;;;;;;;8.40;3.60;;;;;;;29.36;44.78;100415.64;104288;1309;60944;-81
2022/08/23 09:32:03;;;;;;;9.20;3.60;;;;;;;29.36;44.75;100409.65;104546;1308;61237;-81
2022/08/23 09:34:28;;;;;;;9.80;4.10;;;;;;;29.37;44.81;100407.74;104325;1309;71696;-81
2022/08/23 09:37:21;;;;;;;6.80;3.60;;;;;;;29.38;44.64;100408.92;104411;1309;61151;-81
2022/08/23 09:39:49;;;;;;;8.10;3.80;;;;;;;29.37;44.60;100407.34;104449;1308;61235;-81
2022/08/23 09:42:35;;;;;;;10.50;4.00;;;;;;;29.37;44.78;100412.78;104393;1309;61478;-81
2022/08/23 09:45:00;;;;;;;9.80;4.00;;;;;;;29.37;44.77;100408.80;105049;1309;72964;-81
2022/08/23 09:47:45;;;;;;;12.10;4.30;;;;;;;29.38;44.57;100408.39;104499;1309;61291;-81
2022/08/23 09:50:44;;;;;;;8.70;4.00;;;;;;;29.38;44.80;100401.46;104364;1308;61142;-86
2022/08/23 09:53:12;;;;;;;8.80;3.90;;;;;;;29.38;44.77;100406.14;104525;1308;61178;-85
2022/08/23 09:55:42;;;;;;;7.40;3.80;;;;;;;29.38;44.78;100398.88;104423;1309;72766;-84
2022/08/23 09:58:25;;;;;;;9.60;3.90;;;;;;;29.39;44.70;100398.25;104569;1308;74603;-85
2022/08/23 10:01:10;;;;;;;10.90;4.00;;;;;;;29.39;44.74;100389.69;104397;1309;61415;-85
2022/08/23 10:03:37;;;;;;;11.50;4.20;;;;;;;29.40;44.80;100387.10;104419;1307;61277;-84
2022/08/23 10:06:03;;;;;;;10.30;4.40;;;;;;;29.40;44.74;100385.58;104435;1309;61276;-84
2022/08/23 10:08:35;;;;;;;10.30;4.40;;;;;;;29.40;44.78;100383.05;104537;1309;61314;-84
2022/08/23 10:11:10;;;;;;;10.60;4.60;;;;;;;29.41;44.64;100384.45;104456;1309;61391;-86
2022/08/23 10:13:38;;;;;;;11.00;4.50;;;;;;;29.42;44.61;100380.74;104538;1307;61250;-86
2022/08/23 10:16:25;;;;;;;11.00;4.90;;;;;;;29.42;44.71;100374.02;104635;1308;73901;-85
2022/08/23 10:19:19;;;;;;;12.90;5.00;;;;;;;29.41;44.70;100369.70;104720;1307;75732;-86
2022/08/23 10:22:04;;;;;;;14.10;4.70;;;;;;;29.42;44.56;100370.96;104749;1309;61495;-85
2022/08/23 10:24:42;;;;;;;8.50;4.10;;;;;;;29.41;44.76;100372.59;104613;1307;61240;-84
2022/08/23 10:30:40;;;;;;;11.30;4.20;;;;;;;29.40;44.75;100368.92;104744;1309;74955;-85
2022/08/23 10:33:25;;;;;;;11.90;4.40;;;;;;;29.41;44.74;100370.48;104682;1306;61313;-87
2022/08/23 10:36:10;;;;;;;15.90;5.00;;;;;;;29.40;44.65;100372.02;104672;1309;61279;-85
2022/08/23 10:38:55;;;;;;;9.00;4.00;;;;;;;29.40;44.73;100371.66;104731;1309;72564;-85
2022/08/23 10:41:46;;;;;;;10.30;4.00;;;;;;;29.40;44.67;100374.73;104629;1309;74054;-85
2022/08/23 10:44:17;;;;;;;12.60;4.30;;;;;;;29.40;44.67;100378.77;104710;1309;61136;-85
2022/08/23 10:46:47;;;;;;;10.10;4.60;;;;;;;29.40;44.58;100380.17;104694;1309;61256;-87
2022/08/23 10:49:14;;;;;;;9.10;4.20;;;;;;;29.39;44.59;100372.29;104634;1309;71953;-84
2022/08/23 10:51:45;;;;;;;10.10;4.70;;;;;;;29.39;44.46;100370.29;104582;1309;74974;-85
2022/08/23 10:54:17;;;;;;;8.80;4.30;;;;;;;29.40;44.77;100365.53;104660;1309;61299;-85
2022/08/23 10:57:06;;;;;;;10.00;4.20;;;;;;;29.40;44.69;100363.55;104509;1308;61096;-85
2022/08/23 10:59:32;;;;;;;11.40;4.30;;;;;;;29.40;44.51;100366.48;104226;1315;72878;-85
2022/08/23 11:02:49;;;;;;;8.80;4.50;;;;;;;29.40;44.60;100364.80;103934;1315;60979;-85
2022/08/23 11:05:25;;;;;;;12.70;4.30;;;;;;;29.39;44.49;100365.63;103382;1322;62114;-85
2022/08/23 11:07:57;;;;;;;11.10;4.80;;;;;;;29.40;44.61;100368.99;103279;1322;61590;-85
2022/08/23 11:10:39;;;;;;;8.90;4.60;;;;;;;29.40;44.73;100363.52;103362;1322;72968;-85
2022/08/23 11:13:37;;;;;;;9.90;4.40;;;;;;;29.40;44.55;100361.89;103366;1322;75189;-85
2022/08/23 11:16:13;;;;;;;10.40;5.20;;;;;;;29.40;44.38;100367.66;102649;1332;61939;-86
2022/08/23 11:18:40;;;;;;;10.40;5.40;;;;;;;29.41;44.60;100365.29;102682;1327;61473;-85
2022/08/23 11:21:37;;;;;;;9.30;4.70;;;;;;;29.41;44.32;100368.34;102762;1329;74541;-86
2022/08/23 11:24:06;;;;;;;11.00;5.20;;;;;;;29.40;44.34;100366.03;102378;1335;74906;-86
2022/08/23 11:26:58;;;;;;;11.50;5.30;;;;;;;29.41;44.42;100370.14;102357;1335;61302;-86
2022/08/23 11:29:30;;;;;;;8.60;4.80;;;;;;;29.41;44.48;100372.83;101977;1340;61603;-85
2022/08/23 11:32:05;;;;;;;9.90;4.90;;;;;;;29.42;44.32;100371.67;101927;1341;72824;-84
2022/08/23 11:34:53;;;;;;;9.10;5.10;;;;;;;29.42;44.53;100370.02;101937;1341;74752;-85
2022/08/23 11:37:19;;;;;;;12.20;5.90;;;;;;;29.41;44.47;100366.61;102023;1337;61345;-87